Time;durP1;ratioP1;P1;durP2;ratioP2;P2;SDS_P1;SDS_P2;PMS_P1;PMS_P2;Temp;Humidity;BMP_temperature;BMP_pressure;BME280_temperature;BME280_humidity;BME280_pressure;Samples;Min_cycle;Max_cycle;Signal;HPM_P1;HPM_P2
2021/10/12 00:00:05;;;;;;;;;;;;;;;20.53;42.75;96259.84;1048921;28;958;-59
2021/10/12 00:00:36;;;;;;;;;;;;;;;20.52;42.77;96255.63;1044988;28;803;-58
2021/10/12 00:01:06;;;;;;;;;;;;;;;20.51;42.75;96255.88;1044445;28;979;-59
2021/10/12 00:01:37;;;;;;;;;;;;;;;20.51;42.96;96264.56;1040441;28;840;-57
2021/10/12 00:02:07;;;;;;;;;;;;;;;20.52;42.80;96258.28;1040115;28;833;-58
2021/10/12 00:02:37;;;;;;;;;;;;;;;20.52;42.96;96258.28;1039309;28;1010;-58
2021/10/12 00:03:08;;;;;;;;;;;;;;;20.51;42.92;96264.56;1043530;28;1061;-58
2021/10/12 00:03:38;;;;;;;;;;;;;;;20.52;42.87;96266.19;1043397;28;796;-58
2021/10/12 00:04:08;;;;;;;;;;;;;;;20.53;42.72;96259.84;1044091;28;810;-58
2021/10/12 00:04:39;;;;;;;;;;;;;;;20.52;42.92;96258.28;1044341;28;792;-59
2021/10/12 00:05:09;;;;;;;;;;;;;;;20.52;42.77;96260.91;1044540;28;816;-59
2021/10/12 00:05:39;;;;;;;;;;;;;;;20.52;42.84;96260.09;1044472;28;1064;-58
2021/10/12 00:06:10;;;;;;;;;;;;;;;20.50;42.85;96260.38;1044754;28;747;-59
2021/10/12 00:06:40;;;;;;;;;;;;;;;20.51;42.77;96261.16;1045178;28;764;-59
2021/10/12 00:07:11;;;;;;;;;;;;;;;20.51;42.83;96256.69;1044918;28;804;-59
2021/10/12 00:07:43;;;;;;;;;;;;;;;20.51;42.84;96256.69;1040170;28;1339;-59
2021/10/12 00:08:14;;;;;;;;;;;;;;;20.51;42.75;96251.41;1040159;28;936;-59
2021/10/12 00:08:44;;;;;;;;;;;;;;;20.52;42.84;96253.00;1036333;28;1035;-58
2021/10/12 00:09:14;;;;;;;;;;;;;;;20.51;42.70;96255.88;1036874;28;1359;-58
2021/10/12 00:09:45;;;;;;;;;;;;;;;20.52;42.66;96260.91;1040293;28;1391;-59
2021/10/12 00:10:15;;;;;;;;;;;;;;;20.52;42.68;96258.28;1040538;28;797;-58
2021/10/12 00:10:45;;;;;;;;;;;;;;;20.51;42.69;96256.69;1044660;28;1973;-59
2021/10/12 00:11:16;;;;;;;;;;;;;;;20.53;42.98;96264.31;1044611;28;800;-57
2021/10/12 00:11:46;;;;;;;;;;;;;;;20.53;42.87;96262.47;1044544;28;1009;-57
2021/10/12 00:12:16;;;;;;;;;;;;;;;20.53;42.91;96267.75;1043675;28;1018;-58
2021/10/12 00:12:47;;;;;;;;;;;;;;;20.51;42.81;96261.94;1044888;28;756;-58
2021/10/12 00:13:17;;;;;;;;;;;;;;;20.53;42.87;96262.47;1044950;28;1323;-58
2021/10/12 00:13:48;;;;;;;;;;;;;;;20.51;43.00;96264.56;1044862;28;1001;-57
2021/10/12 00:14:19;;;;;;;;;;;;;;;20.50;43.01;96263.00;1044318;28;1005;-58
2021/10/12 00:14:49;;;;;;;;;;;;;;;20.51;42.88;96261.94;1044443;28;1045;-58
2021/10/12 00:15:19;;;;;;;;;;;;;;;20.50;42.88;96260.38;1044926;28;744;-59
2021/10/12 00:15:50;;;;;;;;;;;;;;;20.49;43.00;96252.72;1044706;28;832;-56
2021/10/12 00:16:20;;;;;;;;;;;;;;;20.49;43.01;96258.78;1045129;28;784;-59
2021/10/12 00:16:52;;;;;;;;;;;;;;;20.49;42.90;96255.34;1044850;28;1038;-59
2021/10/12 00:17:23;;;;;;;;;;;;;;;20.48;43.02;96257.22;1045025;28;792;-58
2021/10/12 00:17:53;;;;;;;;;;;;;;;20.50;42.84;96262.22;1043509;28;852;-58
2021/10/12 00:18:23;;;;;;;;;;;;;;;20.50;43.03;96259.56;1044966;28;817;-58
2021/10/12 00:18:54;;;;;;;;;;;;;;;20.49;42.83;96264.03;1044804;28;1277;-58
2021/10/12 00:19:24;;;;;;;;;;;;;;;20.50;42.91;96257.75;1044850;28;800;-58
2021/10/12 00:19:55;;;;;;;;;;;;;;;20.49;43.12;96266.69;1044836;28;843;-59
2021/10/12 00:20:25;;;;;;;;;;;;;;;20.48;43.16;96259.84;1044551;28;1057;-57
2021/10/12 00:20:55;;;;;;;;;;;;;;;20.48;43.05;96264.31;1044530;28;915;-58
2021/10/12 00:21:26;;;;;;;;;;;;;;;20.48;43.13;96265.13;1040184;28;1188;-59
2021/10/12 00:21:56;;;;;;;;;;;;;;;20.48;42.93;96259.84;1040460;28;793;-57
2021/10/12 00:22:26;;;;;;;;;;;;;;;20.47;43.05;96260.09;1039962;28;1395;-58
2021/10/12 00:22:56;;;;;;;;;;;;;;;20.49;42.74;96269.31;1040282;28;841;-54
2021/10/12 00:23:27;;;;;;;;;;;;;;;20.48;42.94;96265.13;1044499;28;827;-58
2021/10/12 00:23:57;;;;;;;;;;;;;;;20.48;43.10;96264.31;1043972;28;1014;-58
2021/10/12 00:24:27;;;;;;;;;;;;;;;20.48;42.84;96270.38;1044113;28;1026;-57
2021/10/12 00:24:58;;;;;;;;;;;;;;;20.47;43.14;96265.34;1045119;28;813;-58
2021/10/12 00:25:28;;;;;;;;;;;;;;;20.47;42.84;96268.78;1044977;28;1017;-59
2021/10/12 00:25:58;;;;;;;;;;;;;;;20.46;42.99;96271.69;1044627;28;990;-57
2021/10/12 00:26:29;;;;;;;;;;;;;;;20.48;42.87;96269.59;1044884;28;1001;-59
2021/10/12 00:26:59;;;;;;;;;;;;;;;20.47;42.98;96274.03;1044330;28;1273;-58
2021/10/12 00:27:29;;;;;;;;;;;;;;;20.48;42.85;96267.75;1044620;28;868;-57
2021/10/12 00:28:00;;;;;;;;;;;;;;;20.47;43.14;96270.63;1044291;28;780;-57
2021/10/12 00:28:30;;;;;;;;;;;;;;;20.48;43.04;96266.94;1044352;28;821;-58
2021/10/12 00:29:01;;;;;;;;;;;;;;;20.48;43.02;96270.38;1044586;28;1229;-57
2021/10/12 00:29:31;;;;;;;;;;;;;;;20.48;42.85;96267.75;1045026;28;828;-56
2021/10/12 00:30:02;;;;;;;;;;;;;;;20.47;43.05;96271.41;1045033;28;1045;-56
2021/10/12 00:30:33;;;;;;;;;;;;;;;20.47;43.06;96262.72;1044809;28;1993;-58
2021/10/12 00:31:03;;;;;;;;;;;;;;;20.46;43.01;96264.59;1044810;28;833;-58
2021/10/12 00:31:34;;;;;;;;;;;;;;;20.47;43.15;96267.97;1045292;28;496;-58
2021/10/12 00:32:04;;;;;;;;;;;;;;;20.48;42.99;96266.94;1044674;28;741;-57
2021/10/12 00:32:34;;;;;;;;;;;;;;;20.46;43.09;96269.84;1043571;28;1529;-58
2021/10/12 00:33:05;;;;;;;;;;;;;;;20.46;42.99;96264.59;1043774;28;1006;-58
2021/10/12 00:33:35;;;;;;;;;;;;;;;20.46;43.20;96264.59;1044736;28;922;-59
2021/10/12 00:34:05;;;;;;;;;;;;;;;20.45;43.07;96268.25;1039984;28;1352;-59
2021/10/12 00:34:36;;;;;;;;;;;;;;;20.46;43.02;96266.41;1043772;28;762;-58
2021/10/12 00:35:06;;;;;;;;;;;;;;;20.46;42.92;96267.22;1044166;28;1108;-55
2021/10/12 00:35:36;;;;;;;;;;;;;;;20.45;43.07;96265.63;1043936;28;1410;-58
2021/10/12 00:36:07;;;;;;;;;;;;;;;20.43;43.00;96270.34;1044524;28;851;-57
2021/10/12 00:36:37;;;;;;;;;;;;;;;20.45;43.15;96273.53;1044869;28;1026;-58
2021/10/12 00:37:07;;;;;;;;;;;;;;;20.46;43.18;96263.78;1044769;28;1521;-58
2021/10/12 00:37:38;;;;;;;;;;;;;;;20.45;43.11;96267.44;1044749;28;781;-56
2021/10/12 00:38:08;;;;;;;;;;;;;;;20.45;42.86;96262.97;1044665;28;728;-59
2021/10/12 00:38:39;;;;;;;;;;;;;;;20.43;43.00;96265.09;1044821;28;839;-58
2021/10/12 00:39:09;;;;;;;;;;;;;;;20.43;43.03;96259.81;1043830;28;1221;-60
2021/10/12 00:39:40;;;;;;;;;;;;;;;20.45;43.18;96264.81;1043659;28;935;-58
2021/10/12 00:40:10;;;;;;;;;;;;;;;20.45;42.92;96262.97;1043626;28;820;-58
2021/10/12 00:40:41;;;;;;;;;;;;;;;20.46;43.03;96266.41;1044199;28;832;-57
2021/10/12 00:41:11;;;;;;;;;;;;;;;20.43;43.18;96259.81;1044393;28;823;-59
2021/10/12 00:41:41;;;;;;;;;;;;;;;20.44;43.08;96264.06;1044602;28;792;-58
2021/10/12 00:42:12;;;;;;;;;;;;;;;20.43;42.93;96265.09;1044138;28;1502;-59
2021/10/12 00:42:42;;;;;;;;;;;;;;;20.42;43.01;96268.78;1039953;28;1212;-59
2021/10/12 00:43:13;;;;;;;;;;;;;;;20.42;42.78;96258.25;1040089;28;753;-59
2021/10/12 00:43:43;;;;;;;;;;;;;;;20.42;42.87;96268.00;1040398;28;1042;-59
2021/10/12 00:44:13;;;;;;;;;;;;;;;20.42;42.89;96263.53;1043842;28;777;-59
2021/10/12 00:44:44;;;;;;;;;;;;;;;20.41;42.80;96261.94;1044672;28;859;-61
2021/10/12 00:45:15;;;;;;;;;;;;;;;20.41;43.00;96255.84;1044858;28;843;-59
2021/10/12 00:45:46;;;;;;;;;;;;;;;20.41;42.91;96258.50;1044855;28;1029;-59
2021/10/12 00:46:16;;;;;;;;;;;;;;;20.40;43.02;96256.94;1045106;28;1105;-59
2021/10/12 00:46:46;;;;;;;;;;;;;;;20.40;42.80;96256.94;1044971;28;986;-58
2021/10/12 00:47:17;;;;;;;;;;;;;;;20.40;42.83;96260.34;1044656;28;970;-57
2021/10/12 00:47:57;;;;;;;;;;;;;;;20.39;42.84;96253.50;1043267;28;1643;-56
2021/10/12 00:48:27;;;;;;;;;;;;;;;20.41;42.88;96261.13;1044455;28;862;-58
2021/10/12 00:48:57;;;;;;;;;;;;;;;20.41;42.86;96251.38;1044602;28;1221;-59
2021/10/12 00:49:28;;;;;;;;;;;;;;;20.42;42.76;96257.47;1044281;28;722;-59
2021/10/12 00:49:58;;;;;;;;;;;;;;;20.40;42.83;96262.19;1044566;28;970;-60
2021/10/12 00:50:29;;;;;;;;;;;;;;;20.40;42.68;96254.28;1044350;28;1910;-61
2021/10/12 00:50:59;;;;;;;;;;;;;;;20.38;42.96;96259.78;1044567;28;733;-59
2021/10/12 00:51:29;;;;;;;;;;;;;;;20.38;42.95;96262.44;1044206;28;851;-58
2021/10/12 00:52:00;;;;;;;;;;;;;;;20.39;42.67;96261.38;1044574;28;994;-60
2021/10/12 00:52:30;;;;;;;;;;;;;;;20.38;42.84;96254.53;1043054;28;837;-58
2021/10/12 00:53:01;;;;;;;;;;;;;;;20.39;42.77;96263.22;1040868;28;757;-57
2021/10/12 00:53:31;;;;;;;;;;;;;;;20.38;42.71;96257.16;1044301;28;832;-58
2021/10/12 00:54:01;;;;;;;;;;;;;;;20.39;42.67;96253.50;1043611;28;994;-60
2021/10/12 00:54:32;;;;;;;;;;;;;;;20.38;42.63;96257.16;1042520;28;966;-58
2021/10/12 00:55:02;;;;;;;;;;;;;;;20.38;42.82;96257.16;1044471;28;804;-59
2021/10/12 00:55:33;;;;;;;;;;;;;;;20.37;42.92;96260.06;1044735;28;761;-60
2021/10/12 00:56:03;;;;;;;;;;;;;;;20.37;42.92;96255.59;1044974;28;1014;-57
2021/10/12 00:56:34;;;;;;;;;;;;;;;20.37;42.94;96254.78;1044939;28;801;-59
2021/10/12 00:57:06;;;;;;;;;;;;;;;20.39;43.02;96256.13;1044077;28;1456;-59
2021/10/12 00:57:36;;;;;;;;;;;;;;;20.40;43.13;96255.09;1044280;28;773;-58
2021/10/12 00:58:09;;;;;;;;;;;;;;;20.40;43.08;96255.09;1044303;28;741;-59
2021/10/12 00:58:40;;;;;;;;;;;;;;;20.38;43.43;96257.16;1041165;28;1068;-59
2021/10/12 00:59:10;;;;;;;;;;;;;;;20.38;43.26;96257.16;1043996;28;1248;-58
2021/10/12 00:59:40;;;;;;;;;;;;;;;20.38;43.52;96261.66;1044212;28;1021;-59
2021/10/12 01:00:11;;;;;;;;;;;;;;;20.38;43.44;96251.91;1040563;28;1368;-59
2021/10/12 01:00:41;;;;;;;;;;;;;;;20.38;43.46;96257.16;1044286;28;1026;-59
2021/10/12 01:01:12;;;;;;;;;;;;;;;20.37;43.26;96247.69;1044338;28;801;-59
2021/10/12 01:01:42;;;;;;;;;;;;;;;20.36;43.53;96253.22;1044069;28;1021;-59
2021/10/12 01:02:12;;;;;;;;;;;;;;;20.36;43.59;96246.09;1044205;28;561;-59
2021/10/12 01:02:43;;;;;;;;;;;;;;;20.37;43.77;96252.16;1043142;28;792;-59
2021/10/12 01:03:13;;;;;;;;;;;;;;;20.36;43.65;96254.00;1044210;28;800;-59
2021/10/12 01:03:43;;;;;;;;;;;;;;;20.36;43.58;96251.38;1040294;28;1351;-58
2021/10/12 01:04:14;;;;;;;;;;;;;;;20.37;43.86;96254.78;1044186;28;859;-59
2021/10/12 01:04:44;;;;;;;;;;;;;;;20.37;43.83;96250.31;1039727;28;785;-59
2021/10/12 01:05:14;;;;;;;;;;;;;;;20.38;43.94;96256.41;1039978;28;1061;-58
2021/10/12 01:05:45;;;;;;;;;;;;;;;20.37;44.02;96255.59;1044232;28;868;-59
2021/10/12 01:06:15;;;;;;;;;;;;;;;20.37;44.03;96252.16;1040391;28;860;-59
2021/10/12 01:06:46;;;;;;;;;;;;;;;20.38;44.10;96248.50;1044328;28;768;-59
2021/10/12 01:07:16;;;;;;;;;;;;;;;20.39;43.86;96250.06;1044350;28;837;-60
2021/10/12 01:07:50;;;;;;;;;;;;;;;20.38;44.06;96251.91;1043993;28;863;-60
2021/10/12 01:08:20;;;;;;;;;;;;;;;20.37;44.24;96250.31;1044303;28;1794;-58
2021/10/12 01:08:51;;;;;;;;;;;;;;;20.37;44.04;96250.31;1044362;28;1248;-59
2021/10/12 01:09:22;;;;;;;;;;;;;;;20.37;44.24;96252.97;1044206;28;860;-59
2021/10/12 01:09:53;;;;;;;;;;;;;;;20.38;44.35;96251.13;1044193;28;849;-59
2021/10/12 01:10:25;;;;;;;;;;;;;;;20.39;44.34;96253.50;1044353;28;1909;-60
2021/10/12 01:10:57;;;;;;;;;;;;;;;20.37;44.31;96252.97;1044259;28;1521;-59
2021/10/12 01:11:28;;;;;;;;;;;;;;;20.38;44.41;96245.88;1040039;28;978;-59
2021/10/12 01:12:00;;;;;;;;;;;;;;;20.38;44.44;96249.25;1036160;28;981;-59
2021/10/12 01:12:50;;;;;;;;;;;;;;;20.37;44.20;96247.69;1036634;28;1046;-59
2021/10/12 01:13:40;;;;;;;;;;;;;;;20.37;44.52;96250.31;1041607;28;1429;-59
2021/10/12 01:14:12;;;;;;;;;;;;;;;20.38;44.51;96246.63;1044322;28;932;-57
2021/10/12 01:14:42;;;;;;;;;;;;;;;20.37;44.37;96250.31;1043496;28;726;-59
2021/10/12 01:15:13;;;;;;;;;;;;;;;20.38;44.42;96246.63;1044434;28;785;-59
2021/10/12 01:15:43;;;;;;;;;;;;;;;20.38;44.36;96251.91;1044195;28;833;-58
2021/10/12 01:16:15;;;;;;;;;;;;;;;20.37;44.57;96245.06;1044530;28;780;-59
2021/10/12 01:16:47;;;;;;;;;;;;;;;20.39;44.49;96250.88;1044231;28;1466;-59
2021/10/12 01:17:37;;;;;;;;;;;;;;;20.38;44.49;96246.63;1043186;28;1037;-58
2021/10/12 01:18:27;;;;;;;;;;;;;;;20.38;44.64;96245.88;1042159;28;1176;-64
2021/10/12 01:19:07;;;;;;;;;;;;;;;20.38;44.56;96245.88;1044125;28;1333;-59
2021/10/12 01:19:37;;;;;;;;;;;;;;;20.37;44.58;96239.78;1040313;28;804;-57
2021/10/12 01:20:08;;;;;;;;;;;;;;;20.40;44.52;96247.19;1039673;28;756;-58
2021/10/12 01:20:39;;;;;;;;;;;;;;;20.38;44.64;96246.63;1040454;28;807;-59
2021/10/12 01:21:10;;;;;;;;;;;;;;;20.38;44.53;96236.09;1040331;28;894;-59
2021/10/12 01:22:00;;;;;;;;;;;;;;;20.38;44.42;96236.09;1041414;28;1117;-59
2021/10/12 01:22:50;;;;;;;;;;;;;;;20.38;44.75;96230.06;1041494;28;1065;-58
2021/10/12 01:23:40;;;;;;;;;;;;;;;20.35;44.74;96231.38;1044251;28;1079;-58
2021/10/12 01:24:31;;;;;;;;;;;;;;;20.37;44.79;96236.38;1044140;28;1016;-59
2021/10/12 01:25:01;;;;;;;;;;;;;;;20.37;44.58;96221.38;1044310;28;643;-59
2021/10/12 01:25:32;;;;;;;;;;;;;;;20.36;44.73;96235.56;1044656;28;883;-60
2021/10/12 01:26:02;;;;;;;;;;;;;;;20.37;44.64;96234.53;1043568;28;792;-59
2021/10/12 01:26:33;;;;;;;;;;;;;;;20.37;44.55;96226.63;1043758;28;851;-59
2021/10/12 01:27:03;;;;;;;;;;;;;;;20.38;44.61;96225.56;1043853;28;1318;-59
2021/10/12 01:27:37;;;;;;;;;;;;;;;20.37;44.55;96224.00;1039998;28;1269;-59
2021/10/12 01:28:28;;;;;;;;;;;;;;;20.36;44.75;96219.78;1037746;28;1080;-59
2021/10/12 01:29:17;;;;;;;;;;;;;;;20.37;44.57;96221.38;1041409;28;1213;-59
2021/10/12 01:29:48;;;;;;;;;;;;;;;20.39;44.54;96221.09;1040301;28;879;-59
2021/10/12 01:30:39;;;;;;;;;;;;;;;20.37;44.73;96217.94;1037746;28;1906;-59
2021/10/12 01:31:29;;;;;;;;;;;;;;;20.37;44.59;96216.09;1041350;28;1020;-59
2021/10/12 01:32:02;;;;;;;;;;;;;;;20.37;44.66;96212.66;1044229;28;1427;-60
2021/10/12 01:32:36;;;;;;;;;;;;;;;20.36;44.68;96209.25;1043648;28;804;-59
2021/10/12 01:33:06;;;;;;;;;;;;;;;20.37;44.64;96207.41;1043911;28;797;-60
2021/10/12 01:33:37;;;;;;;;;;;;;;;20.37;44.57;96202.94;1044353;28;772;-59
2021/10/12 01:34:14;;;;;;;;;;;;;;;20.37;44.81;96208.19;1044671;28;1089;-59
2021/10/12 01:34:44;;;;;;;;;;;;;;;20.36;44.60;96206.59;1044180;28;1017;-59
2021/10/12 01:35:15;;;;;;;;;;;;;;;20.36;44.91;96208.47;1044640;28;844;-59
2021/10/12 01:35:47;;;;;;;;;;;;;;;20.35;44.79;96205.03;1044616;28;796;-58
2021/10/12 01:36:18;;;;;;;;;;;;;;;20.36;44.58;96206.59;1044387;28;765;-59
2021/10/12 01:36:48;;;;;;;;;;;;;;;20.35;44.67;96205.03;1044136;28;803;-60
2021/10/12 01:37:19;;;;;;;;;;;;;;;20.35;44.52;96207.69;1044366;28;816;-60
2021/10/12 01:37:49;;;;;;;;;;;;;;;20.35;44.62;96207.69;1044091;28;660;-59
2021/10/12 01:38:19;;;;;;;;;;;;;;;20.36;44.66;96201.34;1044518;28;1077;-59
2021/10/12 01:38:50;;;;;;;;;;;;;;;20.35;44.89;96201.59;1043867;28;1295;-57
2021/10/12 01:39:20;;;;;;;;;;;;;;;20.33;44.78;96201.88;1044703;28;772;-59
2021/10/12 01:39:50;;;;;;;;;;;;;;;20.35;44.69;96198.97;1044360;28;1065;-59
2021/10/12 01:40:21;;;;;;;;;;;;;;;20.36;44.46;96203.97;1044024;28;882;-60
2021/10/12 01:40:51;;;;;;;;;;;;;;;20.35;44.58;96205.03;1043943;28;2359;-59
2021/10/12 01:41:22;;;;;;;;;;;;;;;20.36;44.77;96205.84;1044431;28;686;-60
2021/10/12 01:41:52;;;;;;;;;;;;;;;20.36;44.51;96206.59;1048153;28;749;-60
2021/10/12 01:42:23;;;;;;;;;;;;;;;20.36;44.72;96200.56;1048275;28;748;-59
2021/10/12 01:42:57;;;;;;;;;;;;;;;20.35;44.68;96205.03;1043861;28;1434;-59
2021/10/12 01:43:27;;;;;;;;;;;;;;;20.34;44.61;96206.06;1044266;28;846;-58
2021/10/12 01:43:58;;;;;;;;;;;;;;;20.36;44.63;96198.72;1044353;28;733;-60
2021/10/12 01:44:28;;;;;;;;;;;;;;;20.36;44.88;96201.34;1043824;28;817;-60
2021/10/12 01:44:59;;;;;;;;;;;;;;;20.35;44.61;96205.03;1044571;28;896;-60
2021/10/12 01:45:29;;;;;;;;;;;;;;;20.34;44.85;96203.44;1044248;28;1394;-58
2021/10/12 01:46:00;;;;;;;;;;;;;;;20.33;44.52;96201.06;1044725;28;741;-60
2021/10/12 01:46:31;;;;;;;;;;;;;;;20.31;44.60;96201.34;1043767;28;1054;-60
2021/10/12 01:47:01;;;;;;;;;;;;;;;20.31;44.85;96198.72;1043748;28;990;-60
2021/10/12 01:47:31;;;;;;;;;;;;;;;20.32;44.74;96202.91;1044825;28;788;-61
2021/10/12 01:48:02;;;;;;;;;;;;;;;20.32;44.68;96205.53;1043432;28;819;-60
2021/10/12 01:48:32;;;;;;;;;;;;;;;20.31;44.75;96203.97;1044302;28;812;-60
2021/10/12 01:49:03;;;;;;;;;;;;;;;20.33;44.63;96208.97;1044379;28;1343;-60
2021/10/12 01:49:33;;;;;;;;;;;;;;;20.32;44.60;96205.53;1045041;28;749;-60
2021/10/12 01:50:04;;;;;;;;;;;;;;;20.31;44.66;96203.19;1045281;28;794;-60
2021/10/12 01:50:35;;;;;;;;;;;;;;;20.32;44.81;96208.19;1044980;28;1922;-60
2021/10/12 01:51:05;;;;;;;;;;;;;;;20.32;44.76;96204.78;1044878;28;812;-59
2021/10/12 01:51:36;;;;;;;;;;;;;;;20.31;44.80;96203.97;1044898;28;718;-58
2021/10/12 01:52:09;;;;;;;;;;;;;;;20.32;44.69;96208.19;1044794;28;931;-60
2021/10/12 01:52:40;;;;;;;;;;;;;;;20.32;44.63;96202.91;1044845;28;819;-61
2021/10/12 01:53:10;;;;;;;;;;;;;;;20.32;44.61;96204.78;1045090;28;791;-59
2021/10/12 01:53:41;;;;;;;;;;;;;;;20.32;44.76;96204.78;1045025;28;848;-59
2021/10/12 01:54:18;;;;;;;;;;;;;;;20.32;44.61;96202.91;1045069;28;1030;-60
2021/10/12 01:54:48;;;;;;;;;;;;;;;20.33;44.63;96201.88;1044682;28;1022;-60
2021/10/12 01:55:20;;;;;;;;;;;;;;;20.32;44.75;96202.16;1044587;28;894;-59
2021/10/12 01:55:51;;;;;;;;;;;;;;;20.32;44.57;96199.50;1044188;28;774;-59
2021/10/12 01:56:21;;;;;;;;;;;;;;;20.32;44.53;96202.91;1044377;28;757;-59
2021/10/12 01:56:51;;;;;;;;;;;;;;;20.31;44.71;96198.72;1044297;28;804;-59
2021/10/12 01:57:22;;;;;;;;;;;;;;;20.31;44.70;96192.66;1044675;28;749;-60
2021/10/12 01:57:52;;;;;;;;;;;;;;;20.29;44.84;96200.81;1044855;28;1105;-60
2021/10/12 01:58:23;;;;;;;;;;;;;;;20.31;44.71;96205.81;1045126;28;827;-59
2021/10/12 01:58:53;;;;;;;;;;;;;;;20.30;44.85;96196.34;1044938;28;1224;-58
2021/10/12 01:59:23;;;;;;;;;;;;;;;20.29;44.58;96198.19;1044416;28;1464;-57
2021/10/12 01:59:54;;;;;;;;;;;;;;;20.30;44.63;96201.63;1044669;28;773;-57
2021/10/12 02:00:24;;;;;;;;;;;;;;;20.29;44.85;96192.91;1040379;28;1459;-60
2021/10/12 02:00:54;;;;;;;;;;;;;;;20.30;44.61;96193.72;1040513;28;833;-60
2021/10/12 02:01:25;;;;;;;;;;;;;;;20.28;44.68;96201.84;1044484;28;593;-60
2021/10/12 02:01:55;;;;;;;;;;;;;;;20.28;44.63;96193.97;1044526;28;1010;-60
2021/10/12 02:02:26;;;;;;;;;;;;;;;20.29;44.85;96192.91;1044803;28;958;-60
2021/10/12 02:02:56;;;;;;;;;;;;;;;20.28;44.72;96194.75;1043785;28;1073;-59
2021/10/12 02:03:26;;;;;;;;;;;;;;;20.30;44.48;96189.22;1044689;28;833;-60
2021/10/12 02:03:56;;;;;;;;;;;;;;;20.30;44.58;96194.50;1044513;28;1062;-59
2021/10/12 02:04:27;;;;;;;;;;;;;;;20.30;44.38;96189.22;1044152;28;1017;-60
2021/10/12 02:04:57;;;;;;;;;;;;;;;20.31;44.54;96192.66;1044570;28;974;-60
2021/10/12 02:05:28;;;;;;;;;;;;;;;20.30;44.61;96194.50;1044398;28;835;-60
2021/10/12 02:05:58;;;;;;;;;;;;;;;20.30;44.59;96185.81;1044531;28;989;-60
2021/10/12 02:06:28;;;;;;;;;;;;;;;20.28;44.67;96192.13;1044629;28;836;-59
2021/10/12 02:06:59;;;;;;;;;;;;;;;20.31;44.73;96187.38;1044265;28;1021;-59
2021/10/12 02:07:29;;;;;;;;;;;;;;;20.29;44.62;96187.66;1044543;28;852;-60
2021/10/12 02:07:59;;;;;;;;;;;;;;;20.31;44.62;96193.44;1044115;28;1033;-60
2021/10/12 02:08:30;;;;;;;;;;;;;;;20.28;44.70;96188.69;1044496;28;1311;-60
2021/10/12 02:09:00;;;;;;;;;;;;;;;20.28;44.67;96184.22;1044450;28;1264;-59
2021/10/12 02:09:31;;;;;;;;;;;;;;;20.28;44.79;96188.69;1044706;28;753;-59
2021/10/12 02:10:01;;;;;;;;;;;;;;;20.29;44.69;96182.38;1044390;28;702;-60
2021/10/12 02:10:31;;;;;;;;;;;;;;;20.27;44.68;96187.91;1044248;28;2005;-59
2021/10/12 02:11:02;;;;;;;;;;;;;;;20.30;44.49;96181.31;1043997;28;836;-60
2021/10/12 02:11:33;;;;;;;;;;;;;;;20.29;44.48;96179.75;1044536;28;701;-60
2021/10/12 02:12:03;;;;;;;;;;;;;;;20.30;44.63;96181.31;1044250;28;839;-57
2021/10/12 02:12:34;;;;;;;;;;;;;;;20.30;44.69;96180.56;1044367;28;804;-60
2021/10/12 02:13:04;;;;;;;;;;;;;;;20.28;44.66;96176.31;1044706;28;800;-60
2021/10/12 02:13:35;;;;;;;;;;;;;;;20.27;44.71;96166.88;1044470;28;970;-59
2021/10/12 02:14:05;;;;;;;;;;;;;;;20.29;44.67;96179.75;1044423;28;977;-59
2021/10/12 02:14:35;;;;;;;;;;;;;;;20.27;44.46;96168.69;1044283;28;808;-60
2021/10/12 02:15:07;;;;;;;;;;;;;;;20.28;44.62;96165.00;1044193;28;1604;-63
2021/10/12 02:15:37;;;;;;;;;;;;;;;20.27;44.63;96172.13;1044435;28;729;-58
2021/10/12 02:16:07;;;;;;;;;;;;;;;20.27;44.43;96160.81;1044263;28;796;-58
2021/10/12 02:16:38;;;;;;;;;;;;;;;20.28;44.62;96160.53;1044189;28;773;-59
2021/10/12 02:17:08;;;;;;;;;;;;;;;20.28;44.51;96162.38;1044489;28;966;-59
2021/10/12 02:17:38;;;;;;;;;;;;;;;20.27;44.44;96160.81;1043810;28;778;-58
2021/10/12 02:18:10;;;;;;;;;;;;;;;20.26;44.59;96169.72;1044225;28;842;-58
2021/10/12 02:18:41;;;;;;;;;;;;;;;20.30;44.35;96162.91;1044623;28;717;-59
2021/10/12 02:19:11;;;;;;;;;;;;;;;20.26;44.52;96162.63;1048246;28;1307;-59
2021/10/12 02:19:41;;;;;;;;;;;;;;;20.27;44.56;96158.97;1048530;28;828;-60
2021/10/12 02:20:12;;;;;;;;;;;;;;;20.28;44.41;96157.09;1048131;28;863;-59
2021/10/12 02:20:42;;;;;;;;;;;;;;;20.26;44.67;96161.84;1044338;28;725;-60
2021/10/12 02:21:12;;;;;;;;;;;;;;;20.27;44.43;96163.44;1044363;28;761;-59
2021/10/12 02:21:43;;;;;;;;;;;;;;;20.26;44.48;96160.00;1043831;28;1062;-58
2021/10/12 02:22:13;;;;;;;;;;;;;;;20.25;44.46;96155.00;1043552;28;785;-59
2021/10/12 02:22:43;;;;;;;;;;;;;;;20.24;44.75;96158.69;1044158;28;855;-57
2021/10/12 02:23:14;;;;;;;;;;;;;;;20.25;44.53;96157.63;1044303;28;816;-59
2021/10/12 02:23:44;;;;;;;;;;;;;;;20.27;44.68;96160.81;1043895;28;821;-60
2021/10/12 02:24:14;;;;;;;;;;;;;;;20.26;44.32;96159.22;1043731;28;745;-59
2021/10/12 02:24:45;;;;;;;;;;;;;;;20.25;44.44;96157.63;1044055;28;1444;-58
2021/10/12 02:25:16;;;;;;;;;;;;;;;20.25;44.50;96160.28;1044257;28;1430;-58
2021/10/12 02:25:46;;;;;;;;;;;;;;;20.26;44.56;96159.22;1044263;28;813;-56
2021/10/12 02:26:16;;;;;;;;;;;;;;;20.26;44.38;96153.94;1044233;28;1002;-58
2021/10/12 02:26:47;;;;;;;;;;;;;;;20.26;44.57;96156.56;1043908;28;985;-59
2021/10/12 02:27:17;;;;;;;;;;;;;;;20.24;44.70;96167.38;1044338;28;1391;-59
2021/10/12 02:27:47;;;;;;;;;;;;;;;20.24;44.66;96166.56;1044036;28;1049;-58
2021/10/12 02:28:18;;;;;;;;;;;;;;;20.26;44.39;96153.94;1044360;28;1025;-59
2021/10/12 02:28:48;;;;;;;;;;;;;;;20.25;44.47;96162.91;1044098;28;776;-56
2021/10/12 02:29:18;;;;;;;;;;;;;;;20.26;44.54;96161.84;1044633;28;1232;-58
2021/10/12 02:29:49;;;;;;;;;;;;;;;20.25;44.40;96157.63;1044539;28;1025;-59
2021/10/12 02:30:20;;;;;;;;;;;;;;;20.26;44.65;96164.47;1044527;28;998;-59
2021/10/12 02:30:50;;;;;;;;;;;;;;;20.26;44.56;96162.63;1044236;28;1963;-58
2021/10/12 02:31:20;;;;;;;;;;;;;;;20.25;44.58;96168.16;1044604;28;844;-59
2021/10/12 02:31:51;;;;;;;;;;;;;;;20.25;44.35;96161.06;1044210;28;776;-60
2021/10/12 02:32:21;;;;;;;;;;;;;;;20.25;44.55;96168.16;1044252;28;872;-60
2021/10/12 02:32:51;;;;;;;;;;;;;;;20.27;44.39;96160.81;1043354;28;856;-59
2021/10/12 02:33:22;;;;;;;;;;;;;;;20.24;44.44;96167.38;1043808;28;1473;-59
2021/10/12 02:33:52;;;;;;;;;;;;;;;20.23;44.61;96167.63;1044246;28;793;-59
2021/10/12 02:34:22;;;;;;;;;;;;;;;20.25;44.35;96170.81;1043661;28;722;-59
2021/10/12 02:34:53;;;;;;;;;;;;;;;20.22;44.56;96168.69;1044070;28;788;-60
2021/10/12 02:35:23;;;;;;;;;;;;;;;20.22;44.76;96161.56;1044097;28;867;-60
2021/10/12 02:35:54;;;;;;;;;;;;;;;20.23;44.48;96170.28;1044520;28;927;-58
2021/10/12 02:36:24;;;;;;;;;;;;;;;20.23;44.29;96167.63;1044602;28;770;-59
2021/10/12 02:36:55;;;;;;;;;;;;;;;20.23;44.60;96165.00;1044295;28;781;-60
2021/10/12 02:37:25;;;;;;;;;;;;;;;20.23;44.40;96170.28;1044600;28;987;-60
2021/10/12 02:37:56;;;;;;;;;;;;;;;20.24;44.47;96164.75;1044210;28;1090;-60
2021/10/12 02:38:26;;;;;;;;;;;;;;;20.25;44.49;96165.53;1044666;28;955;-60
2021/10/12 02:38:56;;;;;;;;;;;;;;;20.24;44.36;96171.84;1044334;28;1314;-60
2021/10/12 02:39:26;;;;;;;;;;;;;;;20.22;44.61;96166.03;1044673;28;994;-60
2021/10/12 02:39:58;;;;;;;;;;;;;;;20.21;44.41;96167.13;1044501;28;773;-59
2021/10/12 02:40:29;;;;;;;;;;;;;;;20.21;44.39;96165.28;1044546;28;1085;-60
2021/10/12 02:40:59;;;;;;;;;;;;;;;20.21;44.35;96167.13;1044443;28;1014;-60
2021/10/12 02:41:29;;;;;;;;;;;;;;;20.22;44.52;96163.41;1044621;28;836;-60
2021/10/12 02:42:00;;;;;;;;;;;;;;;20.22;44.45;96166.03;1043891;28;1052;-59
2021/10/12 02:42:30;;;;;;;;;;;;;;;20.22;44.53;96163.41;1044225;28;970;-60
2021/10/12 02:43:00;;;;;;;;;;;;;;;20.22;44.40;96161.56;1043810;28;1485;-60
2021/10/12 02:43:31;;;;;;;;;;;;;;;20.22;44.37;96163.41;1044029;28;820;-59
2021/10/12 02:44:01;;;;;;;;;;;;;;;20.23;44.31;96165.00;1044166;28;906;-59
2021/10/12 02:44:31;;;;;;;;;;;;;;;20.23;44.71;96167.63;1043536;28;796;-59
2021/10/12 02:45:02;;;;;;;;;;;;;;;20.23;44.35;96171.06;1044606;28;1034;-60
2021/10/12 02:45:32;;;;;;;;;;;;;;;20.23;44.41;96159.75;1044333;28;828;-59
2021/10/12 02:46:03;;;;;;;;;;;;;;;20.22;44.29;96168.69;1044569;28;1069;-60
2021/10/12 02:46:33;;;;;;;;;;;;;;;20.22;44.62;96166.84;1044651;28;1369;-59